sensor_id;sensor_type;location;lat;lon;timestamp;pressure;altitude;pressure_sealevel;temperature;humidity
50123;BME280;36021;48.670;6.184;2023-02-01T00:01:29;99966.25;;;5.05;100.00
50123;BME280;36021;48.670;6.184;2023-02-01T00:03:55;99972.06;;;5.08;100.00
50123;BME280;36021;48.670;6.184;2023-02-01T00:06:20;99969.94;;;5.10;100.00
50123;BME280;36021;48.670;6.184;2023-02-01T00:08:46;99969.00;;;5.16;100.00
50123;BME280;36021;48.670;6.184;2023-02-01T00:11:12;99961.97;;;5.20;100.00
50123;BME280;36021;48.670;6.184;2023-02-01T00:13:39;99960.44;;;5.24;100.00
50123;BME280;36021;48.670;6.184;2023-02-01T00:16:06;99955.69;;;5.20;100.00
50123;BME280;36021;48.670;6.184;2023-02-01T00:18:32;99952.97;;;5.20;100.00
50123;BME280;36021;48.670;6.184;2023-02-01T00:20:57;99948.56;;;5.19;100.00
50123;BME280;36021;48.670;6.184;2023-02-01T00:23:23;99949.16;;;5.21;100.00
50123;BME280;36021;48.670;6.184;2023-02-01T00:25:49;99955.59;;;5.27;100.00
50123;BME280;36021;48.670;6.184;2023-02-01T00:28:14;99958.91;;;5.29;100.00
50123;BME280;36021;48.670;6.184;2023-02-01T00:30:41;99955.31;;;5.28;100.00
50123;BME280;36021;48.670;6.184;2023-02-01T00:33:07;99958.91;;;5.29;100.00
50123;BME280;36021;48.670;6.184;2023-02-01T00:35:35;99955.31;;;5.28;100.00
50123;BME280;36021;48.670;6.184;2023-02-01T00:38:01;99956.63;;;5.25;100.00
50123;BME280;36021;48.670;6.184;2023-02-01T00:40:27;99948.44;;;5.25;100.00
50123;BME280;36021;48.670;6.184;2023-02-01T00:42:53;99947.59;;;5.25;100.00
50123;BME280;36021;48.670;6.184;2023-02-01T00:45:19;99945.09;;;5.23;100.00
50123;BME280;36021;48.670;6.184;2023-02-01T00:47:44;99941.91;;;5.27;100.00
50123;BME280;36021;48.670;6.184;2023-02-01T00:50:10;99948.19;;;5.27;100.00
50123;BME280;36021;48.670;6.184;2023-02-01T00:52:35;99935.75;;;5.19;100.00
50123;BME280;36021;48.670;6.184;2023-02-01T00:55:01;99927.53;;;5.31;100.00
50123;BME280;36021;48.670;6.184;2023-02-01T00:57:27;99926.47;;;5.32;100.00
50123;BME280;36021;48.670;6.184;2023-02-01T00:59:52;99933.00;;;5.31;100.00
50123;BME280;36021;48.670;6.184;2023-02-01T01:02:20;99945.94;;;5.36;100.00
50123;BME280;36021;48.670;6.184;2023-02-01T01:04:46;99935.38;;;5.39;100.00
50123;BME280;36021;48.670;6.184;2023-02-01T01:07:11;99936.22;;;5.40;100.00
50123;BME280;36021;48.670;6.184;2023-02-01T01:09:37;99937.50;;;5.37;100.00
50123;BME280;36021;48.670;6.184;2023-02-01T01:12:04;99924.81;;;5.43;100.00
50123;BME280;36021;48.670;6.184;2023-02-01T01:14:32;99924.56;;;5.33;100.00
50123;BME280;36021;48.670;6.184;2023-02-01T01:16:57;99923.13;;;5.30;100.00
50123;BME280;36021;48.670;6.184;2023-02-01T01:19:23;99907.47;;;5.25;100.00
50123;BME280;36021;48.670;6.184;2023-02-01T01:21:48;99902.69;;;5.33;100.00
50123;BME280;36021;48.670;6.184;2023-02-01T01:24:16;99910.28;;;5.31;100.00
50123;BME280;36021;48.670;6.184;2023-02-01T01:26:42;99901.88;;;5.32;100.00
50123;BME280;36021;48.670;6.184;2023-02-01T01:29:08;99902.69;;;5.33;100.00
50123;BME280;36021;48.670;6.184;2023-02-01T01:31:34;99907.06;;;5.34;100.00
50123;BME280;36021;48.670;6.184;2023-02-01T01:34:00;99908.50;;;5.24;100.00
50123;BME280;36021;48.670;6.184;2023-02-01T01:36:26;99917.44;;;5.32;100.00
50123;BME280;36021;48.670;6.184;2023-02-01T01:38:52;99920.50;;;5.23;100.00
50123;BME280;36021;48.670;6.184;2023-02-01T01:41:19;99896.53;;;5.25;100.00
50123;BME280;36021;48.670;6.184;2023-02-01T01:43:47;99893.06;;;5.30;100.00
50123;BME280;36021;48.670;6.184;2023-02-01T01:46:18;99906.72;;;5.30;100.00
50123;BME280;36021;48.670;6.184;2023-02-01T01:48:44;99895.47;;;5.27;100.00
50123;BME280;36021;48.670;6.184;2023-02-01T01:51:11;99902.00;;;5.25;100.00
50123;BME280;36021;48.670;6.184;2023-02-01T01:53:42;99882.03;;;5.25;100.00
50123;BME280;36021;48.670;6.184;2023-02-01T01:56:10;99889.53;;;5.30;100.00
50123;BME280;36021;48.670;6.184;2023-02-01T01:58:36;99895.34;;;5.21;100.00
50123;BME280;36021;48.670;6.184;2023-02-01T02:01:02;99892.59;;;5.21;100.00
50123;BME280;36021;48.670;6.184;2023-02-01T02:03:43;99884.41;;;5.21;100.00
50123;BME280;36021;48.670;6.184;2023-02-01T02:06:26;99892.59;;;5.33;100.00
50123;BME280;36021;48.670;6.184;2023-02-01T02:08:53;99898.88;;;5.34;100.00
50123;BME280;36021;48.670;6.184;2023-02-01T02:14:03;99894.03;;;5.36;100.00
50123;BME280;36021;48.670;6.184;2023-02-01T02:16:45;99888.78;;;5.34;100.00
50123;BME280;36021;48.670;6.184;2023-02-01T02:30:28;99899.38;;;5.42;100.00
50123;BME280;36021;48.670;6.184;2023-02-01T02:33:14;99902.81;;;5.38;100.00
50123;BME280;36021;48.670;6.184;2023-02-01T02:38:18;99914.09;;;5.53;100.00
50123;BME280;36021;48.670;6.184;2023-02-01T02:43:25;99908.50;;;5.48;100.00
50123;BME280;36021;48.670;6.184;2023-02-01T02:46:32;99891.38;;;5.41;100.00
50123;BME280;36021;48.670;6.184;2023-02-01T02:49:26;99898.03;;;5.45;100.00
50123;BME280;36021;48.670;6.184;2023-02-01T02:51:56;99907.44;;;5.49;100.00
50123;BME280;36021;48.670;6.184;2023-02-01T02:54:43;99902.66;;;5.44;100.00
50123;BME280;36021;48.670;6.184;2023-02-01T02:57:17;99906.22;;;5.56;100.00
50123;BME280;36021;48.670;6.184;2023-02-01T03:00:02;99905.41;;;5.56;100.00
50123;BME280;36021;48.670;6.184;2023-02-01T03:02:48;99894.44;;;5.67;100.00
50123;BME280;36021;48.670;6.184;2023-02-01T03:05:36;99888.13;;;5.67;100.00
50123;BME280;36021;48.670;6.184;2023-02-01T03:08:08;99888.63;;;5.64;100.00
50123;BME280;36021;48.670;6.184;2023-02-01T03:16:09;99890.00;;;5.78;100.00
50123;BME280;36021;48.670;6.184;2023-02-01T03:18:41;99894.41;;;5.79;100.00
50123;BME280;36021;48.670;6.184;2023-02-01T03:21:10;99900.59;;;5.86;100.00
50123;BME280;36021;48.670;6.184;2023-02-01T03:23:37;99887.38;;;5.83;100.00
50123;BME280;36021;48.670;6.184;2023-02-01T03:26:07;99883.47;;;5.79;100.00
50123;BME280;36021;48.670;6.184;2023-02-01T03:28:35;99892.84;;;5.83;100.00
50123;BME280;36021;48.670;6.184;2023-02-01T03:31:04;99890.09;;;5.83;100.00
50123;BME280;36021;48.670;6.184;2023-02-01T03:33:31;99875.50;;;5.77;100.00
50123;BME280;36021;48.670;6.184;2023-02-01T03:38:38;99878.84;;;5.68;100.00
50123;BME280;36021;48.670;6.184;2023-02-01T03:41:13;99859.22;;;5.71;100.00
50123;BME280;36021;48.670;6.184;2023-02-01T03:44:01;99853.97;;;5.81;100.00
50123;BME280;36021;48.670;6.184;2023-02-01T03:46:40;99842.44;;;5.79;100.00
50123;BME280;36021;48.670;6.184;2023-02-01T03:49:16;99842.19;;;5.81;100.00
50123;BME280;36021;48.670;6.184;2023-02-01T03:51:42;99836.38;;;5.89;100.00
50123;BME280;36021;48.670;6.184;2023-02-01T03:54:11;99849.22;;;5.88;100.00
50123;BME280;36021;48.670;6.184;2023-02-01T03:56:39;99843.84;;;5.93;100.00
50123;BME280;36021;48.670;6.184;2023-02-01T03:59:10;99862.91;;;5.88;100.00
50123;BME280;36021;48.670;6.184;2023-02-01T04:01:36;99873.13;;;5.81;100.00
50123;BME280;36021;48.670;6.184;2023-02-01T05:29:24;99894.81;;;6.11;100.00
50123;BME280;36021;48.670;6.184;2023-02-01T05:31:50;99896.59;;;6.05;100.00
50123;BME280;36021;48.670;6.184;2023-02-01T05:34:16;99890.16;;;6.11;100.00
50123;BME280;36021;48.670;6.184;2023-02-01T05:36:42;99896.13;;;6.08;100.00
50123;BME280;36021;48.670;6.184;2023-02-01T05:39:07;99892.91;;;6.11;100.00
50123;BME280;36021;48.670;6.184;2023-02-01T05:41:33;99900.00;;;6.12;100.00
50123;BME280;36021;48.670;6.184;2023-02-01T05:43:59;99904.50;;;6.18;100.00
50123;BME280;36021;48.670;6.184;2023-02-01T05:46:24;99901.75;;;6.18;100.00
50123;BME280;36021;48.670;6.184;2023-02-01T05:48:50;99913.31;;;6.20;100.00
50123;BME280;36021;48.670;6.184;2023-02-01T05:51:16;99920.84;;;6.13;100.00
50123;BME280;36021;48.670;6.184;2023-02-01T05:53:42;99913.69;;;6.12;100.00
50123;BME280;36021;48.670;6.184;2023-02-01T05:56:09;99916.22;;;6.02;100.00
50123;BME280;36021;48.670;6.184;2023-02-01T05:58:34;99927.78;;;6.04;100.00
50123;BME280;36021;48.670;6.184;2023-02-01T06:01:00;99915.84;;;6.10;100.00
50123;BME280;36021;48.670;6.184;2023-02-01T06:03:26;99918.97;;;6.02;100.00
50123;BME280;36021;48.670;6.184;2023-02-01T06:05:52;99918.16;;;6.02;100.00
50123;BME280;36021;48.670;6.184;2023-02-01T06:08:18;99924.56;;;6.07;100.00
50123;BME280;36021;48.670;6.184;2023-02-01T06:10:43;99928.81;;;6.15;100.00
50123;BME280;36021;48.670;6.184;2023-02-01T06:13:09;99923.22;;;6.10;100.00
50123;BME280;36021;48.670;6.184;2023-02-01T06:15:34;99926.81;;;6.10;100.00
50123;BME280;36021;48.670;6.184;2023-02-01T06:18:02;99921.69;;;6.14;100.00
50123;BME280;36021;48.670;6.184;2023-02-01T06:20:29;99916.69;;;6.11;100.00
50123;BME280;36021;48.670;6.184;2023-02-01T06:22:56;99921.81;;;6.07;100.00
50123;BME280;36021;48.670;6.184;2023-02-01T06:25:22;99918.97;;;6.02;100.00
50123;BME280;36021;48.670;6.184;2023-02-01T06:27:48;99921.81;;;6.07;100.00
50123;BME280;36021;48.670;6.184;2023-02-01T06:30:13;99926.22;;;6.08;100.00
50123;BME280;36021;48.670;6.184;2023-02-01T06:32:39;99930.59;;;6.09;100.00
50123;BME280;36021;48.670;6.184;2023-02-01T06:35:08;99927.88;;;6.09;100.00
50123;BME280;36021;48.670;6.184;2023-02-01T06:37:37;99928.28;;;6.01;100.00
50123;BME280;36021;48.670;6.184;2023-02-01T06:40:02;99928.13;;;6.08;100.00
50123;BME280;36021;48.670;6.184;2023-02-01T06:42:28;99936.00;;;6.04;100.00
50123;BME280;36021;48.670;6.184;2023-02-01T06:44:54;99933.34;;;6.09;100.00
50123;BME280;36021;48.670;6.184;2023-02-01T06:47:19;99932.50;;;6.09;100.00
50123;BME280;36021;48.670;6.184;2023-02-01T06:49:45;99933.25;;;6.04;100.00
50123;BME280;36021;48.670;6.184;2023-02-01T06:52:10;99936.00;;;6.04;100.00
50123;BME280;36021;48.670;6.184;2023-02-01T06:54:35;99931.94;;;6.07;100.00
50123;BME280;36021;48.670;6.184;2023-02-01T06:57:03;99942.53;;;6.03;100.00
50123;BME280;36021;48.670;6.184;2023-02-01T06:59:28;99933.88;;;5.95;100.00
50123;BME280;36021;48.670;6.184;2023-02-01T07:01:54;99936.00;;;5.93;100.00
50123;BME280;36021;48.670;6.184;2023-02-01T07:04:20;99946.59;;;6.01;100.00
50123;BME280;36021;48.670;6.184;2023-02-01T07:06:46;99950.16;;;6.01;100.00
50123;BME280;36021;48.670;6.184;2023-02-01T07:09:11;99951.13;;;5.95;100.00
50123;BME280;36021;48.670;6.184;2023-02-01T07:11:38;99956.25;;;5.92;100.00
50123;BME280;36021;48.670;6.184;2023-02-01T07:14:08;99959.56;;;5.82;100.00
50123;BME280;36021;48.670;6.184;2023-02-01T07:16:34;99956.59;;;5.95;100.00
50123;BME280;36021;48.670;6.184;2023-02-01T07:19:00;99960.41;;;5.94;100.00
50123;BME280;36021;48.670;6.184;2023-02-01T07:21:25;99963.00;;;6.01;100.00
50123;BME280;36021;48.670;6.184;2023-02-01T07:23:53;99970.63;;;5.99;100.00
50123;BME280;36021;48.670;6.184;2023-02-01T07:26:18;99972.03;;;6.01;100.00
50123;BME280;36021;48.670;6.184;2023-02-01T07:28:45;99978.50;;;5.95;100.00
50123;BME280;36021;48.670;6.184;2023-02-01T07:31:14;99980.97;;;5.97;100.00
50123;BME280;36021;48.670;6.184;2023-02-01T07:33:41;99988.09;;;5.98;100.00
50123;BME280;36021;48.670;6.184;2023-02-01T07:36:06;99989.28;;;6.02;100.00
50123;BME280;36021;48.670;6.184;2023-02-01T07:38:32;99983.97;;;5.95;100.00
50123;BME280;36021;48.670;6.184;2023-02-01T07:41:01;99978.97;;;5.92;100.00
50123;BME280;36021;48.670;6.184;2023-02-01T07:43:27;99986.09;;;5.93;100.00
50123;BME280;36021;48.670;6.184;2023-02-01T07:45:53;99982.28;;;5.94;100.00
50123;BME280;36021;48.670;6.184;2023-02-01T07:48:21;99987.75;;;5.94;100.00
50123;BME280;36021;48.670;6.184;2023-02-01T07:50:47;99994.06;;;5.95;100.00
50123;BME280;36021;48.670;6.184;2023-02-01T07:53:13;100006.31;;;5.92;100.00
50123;BME280;36021;48.670;6.184;2023-02-01T07:55:39;99987.63;;;5.89;100.00
50123;BME280;36021;48.670;6.184;2023-02-01T07:58:04;99977.50;;;6.01;100.00
50123;BME280;36021;48.670;6.184;2023-02-01T08:00:31;99981.91;;;6.02;100.00
50123;BME280;36021;48.670;6.184;2023-02-01T08:03:15;99974.28;;;6.04;100.00
50123;BME280;36021;48.670;6.184;2023-02-01T08:05:40;99976.78;;;6.06;100.00
50123;BME280;36021;48.670;6.184;2023-02-01T08:08:06;99979.66;;;5.99;100.00
50123;BME280;36021;48.670;6.184;2023-02-01T08:10:32;99980.31;;;6.18;100.00
50123;BME280;36021;48.670;6.184;2023-02-01T08:12:58;99979.69;;;6.27;100.00
50123;BME280;36021;48.670;6.184;2023-02-01T08:15:25;99980.63;;;6.33;100.00
50123;BME280;36021;48.670;6.184;2023-02-01T08:17:51;99977.31;;;6.31;100.00
50123;BME280;36021;48.670;6.184;2023-02-01T08:20:18;99983.66;;;6.48;100.00
50123;BME280;36021;48.670;6.184;2023-02-01T08:22:45;99984.97;;;6.46;100.00
50123;BME280;36021;48.670;6.184;2023-02-01T08:25:10;99984.97;;;6.46;100.00
50123;BME280;36021;48.670;6.184;2023-02-01T08:27:37;99984.97;;;6.46;100.00
50123;BME280;36021;48.670;6.184;2023-02-01T08:30:04;99979.66;;;6.39;100.00
50123;BME280;36021;48.670;6.184;2023-02-01T08:32:30;99979.50;;;6.46;100.00
50123;BME280;36021;48.670;6.184;2023-02-01T08:34:55;99987.56;;;6.52;100.00
50123;BME280;36021;48.670;6.184;2023-02-01T08:37:21;99981.25;;;6.52;100.00
50123;BME280;36021;48.670;6.184;2023-02-01T08:39:47;99979.56;;;6.79;100.00
50123;BME280;36021;48.670;6.184;2023-02-01T08:42:15;99965.53;;;6.75;100.00
50123;BME280;36021;48.670;6.184;2023-02-01T08:44:59;99965.78;;;6.91;100.00
50123;BME280;36021;48.670;6.184;2023-02-01T08:47:25;99959.59;;;6.95;100.00
50123;BME280;36021;48.670;6.184;2023-02-01T08:49:50;99956.97;;;7.55;100.00
50123;BME280;36021;48.670;6.184;2023-02-01T08:52:17;99964.63;;;8.57;100.00
50123;BME280;36021;48.670;6.184;2023-02-01T08:54:44;99961.19;;;8.71;100.00
50123;BME280;36021;48.670;6.184;2023-02-01T08:57:10;99950.66;;;9.22;100.00
50123;BME280;36021;48.670;6.184;2023-02-01T08:59:35;99949.63;;;8.96;100.00
50123;BME280;36021;48.670;6.184;2023-02-01T09:02:01;99958.94;;;8.20;100.00
50123;BME280;36021;48.670;6.184;2023-02-01T09:04:28;99963.34;;;7.99;100.00
50123;BME280;36021;48.670;6.184;2023-02-01T09:06:53;99961.13;;;7.58;100.00
50123;BME280;36021;48.670;6.184;2023-02-01T09:09:23;99973.47;;;7.39;100.00
50123;BME280;36021;48.670;6.184;2023-02-01T09:11:49;99973.28;;;7.28;100.00
50123;BME280;36021;48.670;6.184;2023-02-01T09:14:18;99969.16;;;7.26;100.00
50123;BME280;36021;48.670;6.184;2023-02-01T09:16:43;99971.09;;;7.64;100.00
50123;BME280;36021;48.670;6.184;2023-02-01T09:19:09;99962.19;;;7.57;100.00
50123;BME280;36021;48.670;6.184;2023-02-01T09:21:35;99975.59;;;7.37;100.00
50123;BME280;36021;48.670;6.184;2023-02-01T09:24:00;99985.44;;;7.32;100.00
50123;BME280;36021;48.670;6.184;2023-02-01T09:26:26;99986.72;;;7.13;100.00
50123;BME280;36021;48.670;6.184;2023-02-01T09:28:53;99994.72;;;6.98;100.00
50123;BME280;36021;48.670;6.184;2023-02-01T09:31:18;100001.88;;;7.16;100.00
50123;BME280;36021;48.670;6.184;2023-02-01T09:33:44;99996.91;;;7.29;100.00
50123;BME280;36021;48.670;6.184;2023-02-01T09:36:09;99987.16;;;7.39;100.00
50123;BME280;36021;48.670;6.184;2023-02-01T09:38:35;99993.31;;;7.29;100.00
50123;BME280;36021;48.670;6.184;2023-02-01T09:41:00;100001.13;;;7.20;100.00
50123;BME280;36021;48.670;6.184;2023-02-01T09:48:33;100025.44;;;6.84;100.00
50123;BME280;36021;48.670;6.184;2023-02-01T09:51:06;100025.91;;;6.97;100.00
50123;BME280;36021;48.670;6.184;2023-02-01T09:53:40;100024.34;;;7.01;100.00
50123;BME280;36021;48.670;6.184;2023-02-01T09:56:12;100020.63;;;7.07;100.00
50123;BME280;36021;48.670;6.184;2023-02-01T10:01:26;100013.72;;;7.05;100.00
50123;BME280;36021;48.670;6.184;2023-02-01T10:03:56;100027.47;;;7.21;100.00
50123;BME280;36021;48.670;6.184;2023-02-01T10:09:02;100021.63;;;7.01;100.00
50123;BME280;36021;48.670;6.184;2023-02-01T10:11:32;100028.78;;;7.02;100.00
50123;BME280;36021;48.670;6.184;2023-02-01T10:17:04;100030.53;;;7.08;100.00
50123;BME280;36021;48.670;6.184;2023-02-01T10:22:12;100036.22;;;6.90;100.00
50123;BME280;36021;48.670;6.184;2023-02-01T10:29:45;100031.94;;;7.11;100.00
50123;BME280;36021;48.670;6.184;2023-02-01T10:32:15;100023.97;;;7.09;100.00
50123;BME280;36021;48.670;6.184;2023-02-01T10:34:42;100023.03;;;7.20;100.00
50123;BME280;36021;48.670;6.184;2023-02-01T10:37:26;100024.03;;;7.14;100.00
50123;BME280;36021;48.670;6.184;2023-02-01T10:39:53;100022.72;;;7.17;100.00
50123;BME280;36021;48.670;6.184;2023-02-01T10:42:20;100015.66;;;7.21;100.00
50123;BME280;36021;48.670;6.184;2023-02-01T10:44:46;100008.78;;;7.18;100.00
50123;BME280;36021;48.670;6.184;2023-02-01T10:47:13;100013.59;;;7.28;100.00
50123;BME280;36021;48.670;6.184;2023-02-01T10:49:45;100019.47;;;7.37;100.00
50123;BME280;36021;48.670;6.184;2023-02-01T10:52:16;100008.34;;;7.26;100.00
50123;BME280;36021;48.670;6.184;2023-02-01T10:54:46;100000.53;;;7.35;100.00
50123;BME280;36021;48.670;6.184;2023-02-01T10:57:20;100003.34;;;7.23;100.00
50123;BME280;36021;48.670;6.184;2023-02-01T10:59:46;100001.78;;;7.27;100.00
50123;BME280;36021;48.670;6.184;2023-02-01T11:02:17;100000.72;;;7.28;100.00
50123;BME280;36021;48.670;6.184;2023-02-01T11:04:44;99998.53;;;7.30;100.00
50123;BME280;36021;48.670;6.184;2023-02-01T11:07:17;100002.38;;;7.29;100.00
50123;BME280;36021;48.670;6.184;2023-02-01T11:09:48;100007.38;;;7.32;100.00
50123;BME280;36021;48.670;6.184;2023-02-01T11:12:28;100000.22;;;7.31;100.00
50123;BME280;36021;48.670;6.184;2023-02-01T11:17:42;99990.41;;;7.36;100.00
50123;BME280;36021;48.670;6.184;2023-02-01T11:22:45;99993.16;;;7.36;100.00
50123;BME280;36021;48.670;6.184;2023-02-01T11:25:13;100004.69;;;7.38;100.00
50123;BME280;36021;48.670;6.184;2023-02-01T11:27:40;99991.81;;;7.38;100.00
50123;BME280;36021;48.670;6.184;2023-02-01T11:30:05;99995.47;;;7.44;100.00
50123;BME280;36021;48.670;6.184;2023-02-01T11:32:33;99991.72;;;7.50;100.00
50123;BME280;36021;48.670;6.184;2023-02-01T11:35:00;99991.47;;;7.51;100.00
50123;BME280;36021;48.670;6.184;2023-02-01T11:39:58;99990.09;;;7.32;100.00
50123;BME280;36021;48.670;6.184;2023-02-01T11:42:25;99990.91;;;7.32;100.00
50123;BME280;36021;48.670;6.184;2023-02-01T11:44:51;99987.75;;;7.24;100.00
50123;BME280;36021;48.670;6.184;2023-02-01T11:47:39;99990.59;;;7.29;100.00
50123;BME280;36021;48.670;6.184;2023-02-01T11:50:14;99993.06;;;7.30;100.00
50123;BME280;36021;48.670;6.184;2023-02-01T11:52:48;99990.66;;;7.17;100.00
50123;BME280;36021;48.670;6.184;2023-02-01T11:57:56;99991.31;;;7.24;100.00
50123;BME280;36021;48.670;6.184;2023-02-01T12:10:26;99974.19;;;7.51;100.00
50123;BME280;36021;48.670;6.184;2023-02-01T12:15:22;99964.00;;;7.29;100.00
50123;BME280;36021;48.670;6.184;2023-02-01T12:20:28;99950.00;;;7.48;100.00
50123;BME280;36021;48.670;6.184;2023-02-01T12:25:27;99937.88;;;7.44;100.00
50123;BME280;36021;48.670;6.184;2023-02-01T12:33:16;99912.34;;;8.52;100.00
50123;BME280;36021;48.670;6.184;2023-02-01T12:43:36;99912.53;;;7.97;100.00
50123;BME280;36021;48.670;6.184;2023-02-01T12:46:06;99908.00;;;7.85;100.00
50123;BME280;36021;48.670;6.184;2023-02-01T12:48:35;99911.97;;;7.95;100.00
50123;BME280;36021;48.670;6.184;2023-02-01T12:51:04;99914.63;;;7.68;100.00
50123;BME280;36021;48.670;6.184;2023-02-01T12:53:54;99908.50;;;7.82;100.00
50123;BME280;36021;48.670;6.184;2023-02-01T12:57:01;99910.88;;;7.74;100.00
50123;BME280;36021;48.670;6.184;2023-02-01T12:59:17;99905.34;;;7.69;100.00
50123;BME280;36021;48.670;6.184;2023-02-01T13:01:46;99904.22;;;7.70;100.00
50123;BME280;36021;48.670;6.184;2023-02-01T13:04:25;99905.25;;;7.64;100.00
50123;BME280;36021;48.670;6.184;2023-02-01T13:06:57;99905.88;;;7.49;100.00
50123;BME280;36021;48.670;6.184;2023-02-01T13:09:38;99907.47;;;7.45;100.00
50123;BME280;36021;48.670;6.184;2023-02-01T13:12:07;99925.63;;;7.29;100.00
50123;BME280;36021;48.670;6.184;2023-02-01T13:14:39;99923.84;;;7.23;100.00
50123;BME280;36021;48.670;6.184;2023-02-01T13:17:11;99927.53;;;7.29;100.00
50123;BME280;36021;48.670;6.184;2023-02-01T13:24:53;99930.25;;;7.29;100.00
50123;BME280;36021;48.670;6.184;2023-02-01T13:27:20;99923.19;;;7.33;100.00
50123;BME280;36021;48.670;6.184;2023-02-01T13:29:50;99916.22;;;7.25;100.00
50123;BME280;36021;48.670;6.184;2023-02-01T13:42:55;99888.19;;;7.40;100.00
50123;BME280;36021;48.670;6.184;2023-02-01T13:45:29;99871.91;;;7.33;100.00
50123;BME280;36021;48.670;6.184;2023-02-01T13:47:57;99877.41;;;7.33;100.00
50123;BME280;36021;48.670;6.184;2023-02-01T13:50:34;99873.44;;;7.24;100.00
50123;BME280;36021;48.670;6.184;2023-02-01T13:53:03;99878.56;;;7.38;100.00
50123;BME280;36021;48.670;6.184;2023-02-01T13:55:36;99872.41;;;7.30;100.00
50123;BME280;36021;48.670;6.184;2023-02-01T14:23:44;99893.75;;;7.45;100.00
50123;BME280;36021;48.670;6.184;2023-02-01T14:26:15;99879.91;;;7.35;100.00
50123;BME280;36021;48.670;6.184;2023-02-01T14:28:45;99880.22;;;7.39;100.00
50123;BME280;36021;48.670;6.184;2023-02-01T14:31:26;99881.06;;;7.39;100.00
50123;BME280;36021;48.670;6.184;2023-02-01T14:33:58;99883.69;;;7.51;100.00
50123;BME280;36021;48.670;6.184;2023-02-01T14:36:24;99890.03;;;7.34;100.00
50123;BME280;36021;48.670;6.184;2023-02-01T14:38:50;99886.06;;;7.25;100.00
50123;BME280;36021;48.670;6.184;2023-02-01T14:41:26;99906.34;;;7.24;100.00
50123;BME280;36021;48.670;6.184;2023-02-01T14:49:13;99904.03;;;7.16;100.00
50123;BME280;36021;48.670;6.184;2023-02-01T14:51:40;99903.03;;;7.22;100.00
50123;BME280;36021;48.670;6.184;2023-02-01T14:54:08;99907.81;;;7.32;100.00
50123;BME280;36021;48.670;6.184;2023-02-01T14:56:37;99902.53;;;7.25;100.00
50123;BME280;36021;48.670;6.184;2023-02-01T14:59:08;99905.81;;;7.27;100.00
50123;BME280;36021;48.670;6.184;2023-02-01T15:01:37;99905.31;;;7.30;100.00
50123;BME280;36021;48.670;6.184;2023-02-01T15:06:36;99914.56;;;7.24;100.00
50123;BME280;36021;48.670;6.184;2023-02-01T15:30:25;99927.28;;;7.14;100.00
50123;BME280;36021;48.670;6.184;2023-02-01T15:35:45;99933.91;;;7.01;100.00
50123;BME280;36021;48.670;6.184;2023-02-01T15:38:25;99929.78;;;7.15;100.00
50123;BME280;36021;48.670;6.184;2023-02-01T15:43:20;99936.75;;;7.06;100.00
50123;BME280;36021;48.670;6.184;2023-02-01T15:45:47;99934.59;;;7.08;100.00
50123;BME280;36021;48.670;6.184;2023-02-01T15:48:16;99932.09;;;7.07;100.00
50123;BME280;36021;48.670;6.184;2023-02-01T15:50:45;99929.28;;;7.02;100.00
50123;BME280;36021;48.670;6.184;2023-02-01T15:53:13;99939.50;;;7.06;100.00
50123;BME280;36021;48.670;6.184;2023-02-01T15:55:42;99927.44;;;7.07;100.00
50123;BME280;36021;48.670;6.184;2023-02-01T15:58:08;99930.13;;;7.02;100.00
50123;BME280;36021;48.670;6.184;2023-02-01T16:00:45;99932.53;;;6.99;100.00
50123;BME280;36021;48.670;6.184;2023-02-01T16:05:58;99929.03;;;7.03;100.00
50123;BME280;36021;48.670;6.184;2023-02-01T16:08:26;99929.59;;;7.05;100.00
50123;BME280;36021;48.670;6.184;2023-02-01T16:10:53;99927.09;;;7.04;100.00
50123;BME280;36021;48.670;6.184;2023-02-01T16:13:19;99939.34;;;6.96;100.00
50123;BME280;36021;48.670;6.184;2023-02-01T16:15:48;99930.00;;;6.97;100.00
50123;BME280;36021;48.670;6.184;2023-02-01T16:18:14;99949.69;;;6.94;100.00
50123;BME280;36021;48.670;6.184;2023-02-01T16:20:40;99942.72;;;6.87;100.00
50123;BME280;36021;48.670;6.184;2023-02-01T16:23:07;99942.56;;;6.93;100.00
50123;BME280;36021;48.670;6.184;2023-02-01T16:25:33;99942.06;;;6.96;100.00
50123;BME280;36021;48.670;6.184;2023-02-01T16:27:59;99944.97;;;6.90;100.00
50123;BME280;36021;48.670;6.184;2023-02-01T16:30:25;99946.38;;;6.92;100.00
50123;BME280;36021;48.670;6.184;2023-02-01T16:32:54;99951.88;;;6.92;100.00
50123;BME280;36021;48.670;6.184;2023-02-01T16:37:51;99956.78;;;6.90;100.00
50123;BME280;36021;48.670;6.184;2023-02-01T16:40:18;99962.06;;;6.80;100.00
50123;BME280;36021;48.670;6.184;2023-02-01T16:42:45;99959.41;;;6.85;100.00
50123;BME280;36021;48.670;6.184;2023-02-01T16:45:11;99959.91;;;6.82;100.00
50123;BME280;36021;48.670;6.184;2023-02-01T16:47:37;99967.06;;;6.83;100.00
50123;BME280;36021;48.670;6.184;2023-02-01T16:50:03;99969.31;;;6.86;100.00
50123;BME280;36021;48.670;6.184;2023-02-01T16:52:29;99965.94;;;6.84;100.00
50123;BME280;36021;48.670;6.184;2023-02-01T16:54:55;99968.63;;;6.79;100.00
50123;BME280;36021;48.670;6.184;2023-02-01T16:57:21;99962.66;;;6.82;100.00
50123;BME280;36021;48.670;6.184;2023-02-01T16:59:48;99975.16;;;6.78;100.00
50123;BME280;36021;48.670;6.184;2023-02-01T17:02:15;99972.75;;;6.81;100.00
50123;BME280;36021;48.670;6.184;2023-02-01T17:04:41;99976.09;;;6.84;100.00
50123;BME280;36021;48.670;6.184;2023-02-01T17:07:09;99982.41;;;6.84;100.00
50123;BME280;36021;48.670;6.184;2023-02-01T17:09:36;99983.72;;;6.81;100.00
50123;BME280;36021;48.670;6.184;2023-02-01T17:12:02;99982.88;;;6.81;100.00
50123;BME280;36021;48.670;6.184;2023-02-01T17:14:29;99978.59;;;6.85;100.00
50123;BME280;36021;48.670;6.184;2023-02-01T17:16:55;99964.31;;;6.83;100.00
50123;BME280;36021;48.670;6.184;2023-02-01T17:19:21;99962.91;;;6.80;100.00
50123;BME280;36021;48.670;6.184;2023-02-01T17:21:49;99952.75;;;6.81;100.00
50123;BME280;36021;48.670;6.184;2023-02-01T17:24:18;99965.78;;;6.91;100.00